createdAt,value
2022-10-16T00:00:52.935Z,10.60
2022-10-16T00:03:27.989Z,11.10
2022-10-16T00:06:05.102Z,9.80
2022-10-16T00:08:37.300Z,10.10
2022-10-16T00:11:12.761Z,10.30
2022-10-16T00:13:48.117Z,9.70
2022-10-16T00:18:50.482Z,10.10
2022-10-16T00:21:25.954Z,8.90
2022-10-16T00:24:00.300Z,9.90
2022-10-16T00:26:34.555Z,9.90
2022-10-16T00:29:06.626Z,9.30
2022-10-16T00:31:38.179Z,8.80
2022-10-16T00:34:09.921Z,9.40
2022-10-16T00:36:41.161Z,9.60
2022-10-16T00:39:12.289Z,10.10
2022-10-16T00:41:43.640Z,9.40
2022-10-16T00:45:00.971Z,9.30
2022-10-16T00:47:36.629Z,9.00
2022-10-16T00:50:13.426Z,9.40
2022-10-16T00:52:48.786Z,9.50
2022-10-16T00:57:52.067Z,10.20
2022-10-16T01:00:26.902Z,9.30
2022-10-16T01:03:02.065Z,10.80
2022-10-16T01:08:17.252Z,10.60
2022-10-16T01:10:56.525Z,11.80
2022-10-16T01:13:36.951Z,11.70
2022-10-16T01:16:14.901Z,12.60
2022-10-16T01:18:53.826Z,11.20
2022-10-16T01:21:29.050Z,12.30
2022-10-16T01:24:08.953Z,11.50
2022-10-16T01:27:02.875Z,12.00
2022-10-16T01:29:40.468Z,11.70
2022-10-16T01:32:17.753Z,12.50
2022-10-16T01:34:55.030Z,12.90
2022-10-16T01:37:35.820Z,12.70
2022-10-16T01:40:12.382Z,12.80
2022-10-16T01:42:48.703Z,13.20
2022-10-16T01:45:22.372Z,13.10
2022-10-16T01:47:56.826Z,12.20
2022-10-16T01:50:28.885Z,12.90
2022-10-16T01:53:04.218Z,13.30
2022-10-16T01:58:11.838Z,13.00
2022-10-16T02:00:46.585Z,12.40
2022-10-16T02:03:21.944Z,12.70
2022-10-16T02:05:57.404Z,13.50
2022-10-16T02:08:31.168Z,13.50
2022-10-16T02:11:04.241Z,12.20
2022-10-16T02:13:43.138Z,13.30
2022-10-16T02:16:16.131Z,12.70
2022-10-16T02:18:47.618Z,12.80
2022-10-16T02:21:24.972Z,13.70
2022-10-16T02:24:04.084Z,13.70
2022-10-16T02:26:44.142Z,13.00
2022-10-16T02:29:20.509Z,14.10
2022-10-16T02:31:57.502Z,14.60
2022-10-16T02:34:31.505Z,12.60
2022-10-16T02:37:06.568Z,14.20
2022-10-16T02:39:39.223Z,14.10
2022-10-16T02:42:17.744Z,13.70
2022-10-16T02:44:49.057Z,14.20
2022-10-16T02:47:20.521Z,14.20
2022-10-16T02:49:52.102Z,14.10
2022-10-16T02:52:24.051Z,13.90
2022-10-16T02:54:55.903Z,13.60
2022-10-16T02:57:28.540Z,13.10
2022-10-16T03:00:00.619Z,13.70
2022-10-16T03:02:31.899Z,13.80
2022-10-16T03:05:03.102Z,13.90
2022-10-16T03:07:34.458Z,13.60
2022-10-16T03:10:07.022Z,14.00
2022-10-16T03:12:39.803Z,13.80
2022-10-16T03:15:12.252Z,11.80
2022-10-16T03:17:44.156Z,13.50
2022-10-16T03:20:15.904Z,13.50
2022-10-16T03:22:47.367Z,14.10
2022-10-16T03:25:23.154Z,15.00
2022-10-16T03:27:54.629Z,14.60
2022-10-16T03:30:25.900Z,14.20
2022-10-16T03:32:57.277Z,14.10
2022-10-16T03:35:28.601Z,13.60
2022-10-16T03:38:00.192Z,14.20
2022-10-16T03:40:33.987Z,14.30
2022-10-16T03:43:05.490Z,14.50
2022-10-16T03:45:37.120Z,13.50
2022-10-16T03:48:08.527Z,13.50
2022-10-16T03:50:41.241Z,24.10
2022-10-16T03:53:12.448Z,14.40
2022-10-16T03:55:45.141Z,13.20
2022-10-16T03:58:16.552Z,12.90
2022-10-16T04:00:48.678Z,13.50
2022-10-16T04:03:20.310Z,14.10
2022-10-16T04:05:51.837Z,13.10
2022-10-16T04:08:23.423Z,13.70
2022-10-16T04:10:54.895Z,12.40
2022-10-16T04:13:26.193Z,13.70
2022-10-16T04:15:57.277Z,13.40
2022-10-16T04:18:29.379Z,13.70
2022-10-16T04:21:08.111Z,13.70
2022-10-16T04:23:39.303Z,13.30
2022-10-16T04:26:11.464Z,25.10
2022-10-16T04:28:43.042Z,15.50
2022-10-16T04:31:14.513Z,14.10
2022-10-16T04:33:50.171Z,13.70
2022-10-16T04:36:24.243Z,13.90
2022-10-16T04:38:58.158Z,14.30
2022-10-16T04:41:29.520Z,14.20
2022-10-16T04:44:01.074Z,13.80
2022-10-16T04:46:32.854Z,13.70
2022-10-16T04:49:04.247Z,13.60
2022-10-16T04:51:35.585Z,14.20
2022-10-16T04:54:07.132Z,13.50
2022-10-16T04:56:44.667Z,13.20
2022-10-16T04:59:16.727Z,13.80
2022-10-16T05:01:48.667Z,13.10
2022-10-16T05:04:19.805Z,13.90
2022-10-16T05:06:51.590Z,13.80
2022-10-16T05:09:23.173Z,14.40
2022-10-16T05:11:56.368Z,14.20
2022-10-16T05:14:27.696Z,12.90
2022-10-16T05:16:58.967Z,13.80
2022-10-16T05:19:30.039Z,14.20
2022-10-16T05:22:01.403Z,13.50
2022-10-16T05:24:32.859Z,13.60
2022-10-16T05:27:04.412Z,14.00
2022-10-16T05:29:36.367Z,13.70
2022-10-16T05:32:07.826Z,16.00
2022-10-16T05:34:39.007Z,16.50
2022-10-16T05:37:10.917Z,13.70
2022-10-16T05:39:42.870Z,13.80
2022-10-16T05:42:14.086Z,14.20
2022-10-16T05:44:45.242Z,13.10
2022-10-16T05:47:17.442Z,13.50
2022-10-16T05:49:48.724Z,13.60
2022-10-16T05:52:19.933Z,13.90
2022-10-16T05:54:52.109Z,12.90
2022-10-16T05:57:23.560Z,25.70
2022-10-16T05:59:54.865Z,19.40
2022-10-16T06:02:31.104Z,13.50
2022-10-16T06:05:02.419Z,12.60
2022-10-16T06:07:37.676Z,12.40
2022-10-16T06:12:43.629Z,13.60
2022-10-16T06:15:15.114Z,11.90
2022-10-16T06:17:46.654Z,12.10
2022-10-16T06:20:18.046Z,12.50
2022-10-16T06:22:49.708Z,13.20
2022-10-16T06:25:20.699Z,12.50
2022-10-16T06:27:51.896Z,12.40
2022-10-16T06:30:23.046Z,12.20
2022-10-16T06:35:33.019Z,12.20
2022-10-16T06:38:04.576Z,12.40
2022-10-16T06:40:39.947Z,11.80
2022-10-16T06:43:11.616Z,12.30
2022-10-16T06:45:42.877Z,11.20
2022-10-16T06:48:14.276Z,12.10
2022-10-16T06:50:47.498Z,11.70
2022-10-16T06:53:19.303Z,11.50
2022-10-16T06:55:50.758Z,12.00
2022-10-16T06:58:22.511Z,11.90
2022-10-16T07:01:03.375Z,11.50
2022-10-16T07:03:35.074Z,11.10
2022-10-16T07:06:08.647Z,10.60
2022-10-16T07:08:41.627Z,11.00
2022-10-16T07:11:15.425Z,11.60
2022-10-16T07:13:51.041Z,10.80
2022-10-16T07:16:27.543Z,10.70
2022-10-16T07:19:00.755Z,11.10
2022-10-16T07:21:36.859Z,11.70
2022-10-16T07:24:13.523Z,11.40
2022-10-16T07:26:47.139Z,11.40
2022-10-16T07:29:20.840Z,12.10
2022-10-16T07:31:52.763Z,11.70
2022-10-16T07:34:24.237Z,12.10
2022-10-16T07:36:57.388Z,12.40
2022-10-16T07:39:28.799Z,11.90
2022-10-16T07:42:00.146Z,10.90
2022-10-16T07:44:32.305Z,11.40
2022-10-16T07:47:03.992Z,11.40
2022-10-16T07:49:35.073Z,9.50
2022-10-16T07:52:06.384Z,11.20
2022-10-16T07:54:37.745Z,10.40
2022-10-16T07:57:08.828Z,10.20
2022-10-16T07:59:41.234Z,11.00
2022-10-16T08:02:12.992Z,11.50
2022-10-16T08:04:44.144Z,12.20
2022-10-16T08:07:15.534Z,11.50
2022-10-16T08:09:46.696Z,18.20
2022-10-16T08:12:17.801Z,11.50
2022-10-16T08:14:49.250Z,11.50
2022-10-16T08:17:20.532Z,10.40
2022-10-16T08:19:51.820Z,10.60
2022-10-16T08:22:23.058Z,9.60
2022-10-16T08:24:54.219Z,10.20
2022-10-16T08:27:25.844Z,10.00
2022-10-16T08:29:57.480Z,11.00
2022-10-16T08:32:29.125Z,9.30
2022-10-16T08:35:00.837Z,9.30
2022-10-16T08:37:35.049Z,9.90
2022-10-16T08:40:08.414Z,9.20
2022-10-16T08:42:55.474Z,9.40
2022-10-16T08:45:42.276Z,9.40
2022-10-16T08:48:27.335Z,9.20
2022-10-16T08:50:59.451Z,8.20
2022-10-16T08:53:38.246Z,9.20
2022-10-16T08:56:11.085Z,9.90
2022-10-16T08:58:42.773Z,10.10
2022-10-16T09:01:18.076Z,10.00
2022-10-16T09:04:17.261Z,10.00
2022-10-16T09:06:52.579Z,8.90
2022-10-16T09:09:55.367Z,9.30
2022-10-16T09:12:35.375Z,9.00
2022-10-16T09:15:19.074Z,8.80
2022-10-16T09:18:01.272Z,9.30
2022-10-16T09:20:38.889Z,8.70
2022-10-16T09:23:20.195Z,8.20
2022-10-16T09:25:52.722Z,8.60
2022-10-16T09:28:24.671Z,8.30
2022-10-16T09:30:55.996Z,7.80
2022-10-16T09:33:32.314Z,8.70
2022-10-16T09:36:08.170Z,8.80
2022-10-16T09:38:40.202Z,8.80
2022-10-16T09:41:19.761Z,8.30
2022-10-16T09:43:58.168Z,8.20
2022-10-16T09:46:34.838Z,8.50
2022-10-16T09:49:20.914Z,9.10
2022-10-16T09:51:52.604Z,8.60
2022-10-16T09:54:28.130Z,8.20
2022-10-16T09:59:50.802Z,8.80
2022-10-16T10:02:31.783Z,9.00
2022-10-16T10:05:03.430Z,8.50
2022-10-16T10:07:42.049Z,8.70
2022-10-16T10:10:24.969Z,8.50
2022-10-16T10:13:01.600Z,7.50
2022-10-16T10:15:38.712Z,8.20
2022-10-16T10:18:23.195Z,8.60
2022-10-16T10:21:06.014Z,8.20
2022-10-16T10:23:38.619Z,8.80
2022-10-16T10:26:17.728Z,8.50
2022-10-16T10:29:04.510Z,8.80
2022-10-16T10:31:42.637Z,7.80
2022-10-16T10:34:27.709Z,8.40
2022-10-16T10:37:10.227Z,12.30
2022-10-16T10:39:54.152Z,9.10
2022-10-16T10:42:31.671Z,8.60
2022-10-16T10:45:19.078Z,9.40
2022-10-16T10:48:02.619Z,10.90
2022-10-16T10:50:40.862Z,8.50
2022-10-16T10:53:27.698Z,8.10
2022-10-16T10:56:08.530Z,9.00
2022-10-16T10:59:03.364Z,8.70
2022-10-16T11:01:45.336Z,8.90
2022-10-16T11:04:44.886Z,8.70
2022-10-16T11:07:20.767Z,9.50
2022-10-16T11:09:56.813Z,9.50
2022-10-16T11:12:31.876Z,9.50
2022-10-16T11:15:12.876Z,8.40
2022-10-16T11:17:50.296Z,7.90
2022-10-16T11:20:27.694Z,9.00
2022-10-16T11:23:07.676Z,9.40
2022-10-16T11:25:41.507Z,8.30
2022-10-16T11:28:18.208Z,9.20
2022-10-16T11:30:54.979Z,8.40
2022-10-16T11:33:36.213Z,9.10
2022-10-16T11:36:16.863Z,8.30
2022-10-16T11:39:03.264Z,8.10
2022-10-16T11:41:44.027Z,8.10
2022-10-16T11:44:23.870Z,9.70
2022-10-16T11:47:28.482Z,9.00
2022-10-16T11:49:59.780Z,8.90
2022-10-16T11:52:39.503Z,8.30
2022-10-16T11:55:22.342Z,9.40
2022-10-16T11:57:57.093Z,7.60
2022-10-16T12:00:36.487Z,8.70
2022-10-16T12:03:20.286Z,7.50
2022-10-16T12:06:15.734Z,7.10
2022-10-16T12:08:47.878Z,7.10
2022-10-16T12:11:37.978Z,7.20
2022-10-16T12:14:36.901Z,8.00
2022-10-16T12:17:36.224Z,7.20
2022-10-16T12:20:26.800Z,7.70
2022-10-16T12:23:01.415Z,8.10
2022-10-16T12:25:35.243Z,8.50
2022-10-16T12:28:18.506Z,8.50
2022-10-16T12:30:57.319Z,8.20
2022-10-16T12:33:31.116Z,8.50
2022-10-16T12:36:04.808Z,7.80
2022-10-16T12:38:47.639Z,8.40
2022-10-16T12:41:29.602Z,7.70
2022-10-16T12:44:02.384Z,7.50
2022-10-16T12:46:42.073Z,7.70
2022-10-16T12:49:32.834Z,6.80
2022-10-16T12:52:04.445Z,7.60
2022-10-16T12:54:42.278Z,7.20
2022-10-16T12:57:36.888Z,7.80
2022-10-16T13:00:23.595Z,7.60
2022-10-16T13:03:19.983Z,8.10
2022-10-16T13:06:07.062Z,8.40
2022-10-16T13:09:00.268Z,7.90
2022-10-16T13:11:40.867Z,8.30
2022-10-16T13:14:54.855Z,8.00
2022-10-16T13:17:33.413Z,9.10
2022-10-16T13:20:20.171Z,7.90
2022-10-16T13:23:04.929Z,8.30
2022-10-16T13:25:56.022Z,8.20
2022-10-16T13:28:33.670Z,8.50
2022-10-16T13:31:06.056Z,7.90
2022-10-16T13:33:39.836Z,12.30
2022-10-16T13:36:23.617Z,13.90
2022-10-16T13:39:09.560Z,9.50
2022-10-16T13:41:40.947Z,8.00
2022-10-16T13:44:18.326Z,8.40
2022-10-16T13:46:59.918Z,8.90
2022-10-16T13:49:31.192Z,8.10
2022-10-16T13:52:03.313Z,7.90
2022-10-16T13:54:35.123Z,8.10
2022-10-16T13:57:26.322Z,7.70
2022-10-16T13:59:58.474Z,7.90
2022-10-16T14:02:36.361Z,7.50
2022-10-16T14:05:11.596Z,7.50
2022-10-16T14:10:25.793Z,8.40
2022-10-16T14:13:03.218Z,9.30
2022-10-16T14:15:36.814Z,9.40
2022-10-16T14:18:08.907Z,11.40
2022-10-16T14:20:40.506Z,10.10
2022-10-16T14:23:24.407Z,8.50
2022-10-16T14:25:55.996Z,8.20
2022-10-16T14:28:27.351Z,7.80
2022-10-16T14:31:02.849Z,8.90
2022-10-16T14:33:37.739Z,7.50
2022-10-16T14:36:16.163Z,8.00
2022-10-16T14:38:57.006Z,8.60
2022-10-16T14:41:29.003Z,8.10
2022-10-16T14:44:04.038Z,8.80
2022-10-16T14:46:38.750Z,7.90
2022-10-16T14:49:20.934Z,7.60
2022-10-16T14:51:53.069Z,7.90
2022-10-16T14:54:24.432Z,7.70
2022-10-16T14:56:57.825Z,8.10
2022-10-16T14:59:36.144Z,8.50
2022-10-16T15:02:20.907Z,8.20
2022-10-16T15:04:53.105Z,9.10
2022-10-16T15:07:24.571Z,9.20
2022-10-16T15:09:58.084Z,10.00
2022-10-16T15:12:29.240Z,8.90
2022-10-16T15:15:00.444Z,9.60
2022-10-16T15:17:31.582Z,10.30
2022-10-16T15:20:05.830Z,10.90
2022-10-16T15:22:37.275Z,11.30
2022-10-16T15:25:20.433Z,8.60
2022-10-16T15:27:51.479Z,9.40
2022-10-16T15:30:22.896Z,8.10
2022-10-16T15:32:54.550Z,9.10
2022-10-16T15:35:28.312Z,8.10
2022-10-16T15:38:00.098Z,9.20
2022-10-16T15:40:32.884Z,8.50
2022-10-16T15:43:07.344Z,8.50
2022-10-16T15:45:38.703Z,8.70
2022-10-16T15:48:12.445Z,8.80
2022-10-16T15:53:24.850Z,8.60
2022-10-16T15:55:55.889Z,8.70
2022-10-16T15:58:27.739Z,9.10
2022-10-16T16:01:03.011Z,8.60
2022-10-16T16:03:34.511Z,9.50
2022-10-16T16:06:10.833Z,17.70
2022-10-16T16:08:42.520Z,9.80
2022-10-16T16:11:15.327Z,9.30
2022-10-16T16:13:47.837Z,8.90
2022-10-16T16:16:21.226Z,9.80
2022-10-16T16:18:56.574Z,13.70
2022-10-16T16:21:27.938Z,19.10
2022-10-16T16:23:59.380Z,10.00
2022-10-16T16:26:36.756Z,8.90
2022-10-16T16:29:09.014Z,9.10
2022-10-16T16:31:40.324Z,9.80
2022-10-16T16:34:12.117Z,9.60
2022-10-16T16:36:43.582Z,9.60
2022-10-16T16:39:14.943Z,9.50
2022-10-16T16:41:48.910Z,10.10
2022-10-16T16:44:22.854Z,10.30
2022-10-16T16:46:55.698Z,8.90
2022-10-16T16:49:27.084Z,10.10
2022-10-16T16:51:58.517Z,9.70
2022-10-16T16:54:31.860Z,9.30
2022-10-16T16:57:04.327Z,17.30
2022-10-16T16:59:35.465Z,12.10
2022-10-16T17:02:07.900Z,11.60
2022-10-16T17:04:39.502Z,10.00
2022-10-16T17:07:11.122Z,11.20
2022-10-16T17:09:42.204Z,10.50
2022-10-16T17:12:13.663Z,10.40
2022-10-16T17:14:46.110Z,10.70
2022-10-16T17:17:24.191Z,10.30
2022-10-16T17:19:55.822Z,10.60
2022-10-16T17:22:27.169Z,9.90
2022-10-16T17:25:04.630Z,10.80
2022-10-16T17:27:36.507Z,10.20
2022-10-16T17:30:09.888Z,11.00
2022-10-16T17:32:51.028Z,11.10
2022-10-16T17:35:22.349Z,10.50
2022-10-16T17:38:27.513Z,10.20
2022-10-16T17:40:58.664Z,10.40
2022-10-16T17:43:32.315Z,9.90
2022-10-16T17:46:07.505Z,10.60
2022-10-16T17:48:42.320Z,10.70
2022-10-16T17:51:22.342Z,11.40
2022-10-16T17:53:58.802Z,11.70
2022-10-16T17:56:32.445Z,14.50
2022-10-16T17:59:06.808Z,17.10
2022-10-16T18:01:40.666Z,20.10
2022-10-16T18:04:16.655Z,20.30
2022-10-16T18:06:48.718Z,19.40
2022-10-16T18:09:21.982Z,16.50
2022-10-16T18:11:59.965Z,14.80
2022-10-16T18:14:34.505Z,14.40
2022-10-16T18:17:07.330Z,13.00
2022-10-16T18:19:40.842Z,12.80
2022-10-16T18:22:12.112Z,17.00
2022-10-16T18:24:43.234Z,17.60
2022-10-16T18:27:14.385Z,14.20
2022-10-16T18:29:45.486Z,13.20
2022-10-16T18:32:17.658Z,13.10
2022-10-16T18:34:49.885Z,15.40
2022-10-16T18:37:21.313Z,15.10
2022-10-16T18:39:52.806Z,14.00
2022-10-16T18:42:24.262Z,16.40
2022-10-16T18:44:55.696Z,16.80
2022-10-16T18:47:27.595Z,17.50
2022-10-16T18:50:01.487Z,16.20
2022-10-16T18:52:32.853Z,15.60
2022-10-16T18:55:04.560Z,16.80
2022-10-16T18:57:36.329Z,15.70
2022-10-16T19:00:09.292Z,16.10
2022-10-16T19:02:41.565Z,13.90
2022-10-16T19:05:15.681Z,14.40
2022-10-16T19:07:49.606Z,13.60
2022-10-16T19:10:21.177Z,15.60
2022-10-16T19:12:53.677Z,17.20
2022-10-16T19:15:25.432Z,20.30
2022-10-16T19:18:04.631Z,26.20
2022-10-16T19:20:36.519Z,25.60
2022-10-16T19:23:11.017Z,29.50
2022-10-16T19:25:42.450Z,29.20
2022-10-16T19:28:17.752Z,32.00
2022-10-16T19:33:22.203Z,28.20
2022-10-16T19:35:53.977Z,25.10
2022-10-16T19:38:25.154Z,26.10
2022-10-16T19:40:56.464Z,25.60
2022-10-16T19:43:27.601Z,20.30
2022-10-16T19:46:03.526Z,22.20
2022-10-16T19:48:34.982Z,19.90
2022-10-16T19:51:09.637Z,20.10
2022-10-16T19:53:41.632Z,17.90
2022-10-16T19:56:17.985Z,18.30
2022-10-16T19:58:49.318Z,17.20
2022-10-16T20:01:25.217Z,17.50
2022-10-16T20:03:57.207Z,17.10
2022-10-16T20:06:28.979Z,18.70
2022-10-16T20:09:00.459Z,20.20
2022-10-16T20:11:33.932Z,28.90
2022-10-16T20:14:06.541Z,28.70
2022-10-16T20:16:39.491Z,18.30
2022-10-16T20:19:11.389Z,17.00
2022-10-16T20:21:43.020Z,16.30
2022-10-16T20:24:15.715Z,16.10
2022-10-16T20:26:47.295Z,16.60
2022-10-16T20:29:18.697Z,16.80
2022-10-16T20:31:49.925Z,16.10
2022-10-16T20:34:21.021Z,15.10
2022-10-16T20:36:52.695Z,16.60
2022-10-16T20:39:23.818Z,14.40
2022-10-16T20:41:54.984Z,15.10
2022-10-16T20:44:29.086Z,14.50
2022-10-16T20:47:00.403Z,15.10
2022-10-16T20:49:44.455Z,15.00
2022-10-16T20:52:17.338Z,13.90
2022-10-16T20:54:48.777Z,14.60
2022-10-16T20:57:21.694Z,14.10
2022-10-16T20:59:55.698Z,14.60
2022-10-16T21:02:26.875Z,13.70
2022-10-16T21:05:01.027Z,14.80
2022-10-16T21:07:32.090Z,14.50
2022-10-16T21:10:03.202Z,13.90
2022-10-16T21:12:34.375Z,14.30
2022-10-16T21:15:20.721Z,13.30
2022-10-16T21:17:53.231Z,14.60
2022-10-16T21:20:24.317Z,13.80
2022-10-16T21:22:56.407Z,14.30
2022-10-16T21:25:27.728Z,14.10
2022-10-16T21:28:01.608Z,14.30
2022-10-16T21:30:32.916Z,14.00
2022-10-16T21:33:03.962Z,14.10
2022-10-16T21:35:34.986Z,14.10
2022-10-16T21:38:07.573Z,14.40
2022-10-16T21:40:39.808Z,13.80
2022-10-16T21:43:11.143Z,13.70
2022-10-16T21:45:42.174Z,13.60
2022-10-16T21:48:13.170Z,14.80
2022-10-16T21:50:50.506Z,13.80
2022-10-16T21:53:21.455Z,14.10
2022-10-16T21:55:52.456Z,13.30
2022-10-16T21:58:23.434Z,13.70
2022-10-16T22:00:54.613Z,14.30
2022-10-16T22:03:25.715Z,13.90
2022-10-16T22:05:56.714Z,13.40
2022-10-16T22:08:27.715Z,14.40
2022-10-16T22:11:05.969Z,12.30
2022-10-16T22:13:37.103Z,13.50
2022-10-16T22:16:09.606Z,14.50
2022-10-16T22:18:41.529Z,14.10
2022-10-16T22:21:12.541Z,14.40
2022-10-16T22:23:43.442Z,14.90
2022-10-16T22:26:14.890Z,14.40
2022-10-16T22:28:46.031Z,15.60
2022-10-16T22:31:17.630Z,13.30
2022-10-16T22:33:48.600Z,14.50
2022-10-16T22:36:19.896Z,14.50
2022-10-16T22:38:51.122Z,14.70
2022-10-16T22:41:23.051Z,14.50
2022-10-16T22:43:54.430Z,14.40
2022-10-16T22:46:28.929Z,14.10
2022-10-16T22:49:00.302Z,14.60
2022-10-16T22:51:31.380Z,13.80
2022-10-16T22:54:02.482Z,14.40
2022-10-16T22:56:33.423Z,13.80
2022-10-16T22:59:04.740Z,13.80
2022-10-16T23:01:39.212Z,14.90
2022-10-16T23:04:10.638Z,14.70
2022-10-16T23:06:41.607Z,13.30
2022-10-16T23:09:13.916Z,14.80
2022-10-16T23:11:44.894Z,14.50
2022-10-16T23:14:20.331Z,13.70
2022-10-16T23:16:51.758Z,14.70
2022-10-16T23:19:22.746Z,13.10
2022-10-16T23:21:53.708Z,14.20
2022-10-16T23:24:24.650Z,14.20
2022-10-16T23:26:55.704Z,14.10
2022-10-16T23:29:26.725Z,15.00
2022-10-16T23:31:58.183Z,15.20
2022-10-16T23:34:29.331Z,14.50
2022-10-16T23:37:00.320Z,14.30
2022-10-16T23:39:31.511Z,14.30
2022-10-16T23:42:02.583Z,14.40
2022-10-16T23:44:34.460Z,13.40
2022-10-16T23:47:05.457Z,14.30
2022-10-16T23:49:36.446Z,13.60
2022-10-16T23:52:08.029Z,14.20
2022-10-16T23:54:39.093Z,14.20
2022-10-16T23:57:10.039Z,14.20
2022-10-16T23:59:41.055Z,13.90
